sensor_id;sensor_type;location;lat;lon;timestamp;pressure;altitude;pressure_sealevel;temperature;humidity
77469;BME280;68840;50.272;12.818;2024-01-15T00:00:07;94322;;;0.1;61.2
77469;BME280;68840;50.272;12.818;2024-01-15T00:02:06;94316;;;0.1;61.2
77469;BME280;68840;50.272;12.818;2024-01-15T00:04:05;94310;;;0.0;61.1
77469;BME280;68840;50.272;12.818;2024-01-15T00:06:06;94304;;;0.0;61.1
77469;BME280;68840;50.272;12.818;2024-01-15T00:08:05;94302;;;0.0;61.0
77469;BME280;68840;50.272;12.818;2024-01-15T00:10:06;94300;;;0.0;60.9
77469;BME280;68840;50.272;12.818;2024-01-15T00:12:06;94296;;;0.0;61.0
77469;BME280;68840;50.272;12.818;2024-01-15T00:14:05;94294;;;0.0;61.0
77469;BME280;68840;50.272;12.818;2024-01-15T00:16:05;94294;;;0.0;61.0
77469;BME280;68840;50.272;12.818;2024-01-15T00:18:05;94293;;;0.0;61.2
77469;BME280;68840;50.272;12.818;2024-01-15T00:20:06;94293;;;0.0;61.3
77469;BME280;68840;50.272;12.818;2024-01-15T00:22:05;94291;;;0.0;61.2
77469;BME280;68840;50.272;12.818;2024-01-15T00:24:05;94289;;;0.1;61.4
77469;BME280;68840;50.272;12.818;2024-01-15T00:26:05;94286;;;0.1;61.3
77469;BME280;68840;50.272;12.818;2024-01-15T00:28:05;94285;;;0.1;61.2
77469;BME280;68840;50.272;12.818;2024-01-15T00:30:06;94281;;;0.1;61.1
77469;BME280;68840;50.272;12.818;2024-01-15T00:32:05;94282;;;0.1;61.2
77469;BME280;68840;50.272;12.818;2024-01-15T00:34:06;94283;;;0.1;61.1
77469;BME280;68840;50.272;12.818;2024-01-15T00:36:06;94281;;;0.1;60.8
77469;BME280;68840;50.272;12.818;2024-01-15T00:38:05;94272;;;0.1;60.9
77469;BME280;68840;50.272;12.818;2024-01-15T00:40:08;94262;;;0.1;60.8
77469;BME280;68840;50.272;12.818;2024-01-15T00:42:05;94262;;;0.1;60.7
77469;BME280;68840;50.272;12.818;2024-01-15T00:44:05;94268;;;0.1;60.7
77469;BME280;68840;50.272;12.818;2024-01-15T00:46:05;94269;;;0.1;60.6
77469;BME280;68840;50.272;12.818;2024-01-15T00:48:06;94264;;;0.1;60.6
77469;BME280;68840;50.272;12.818;2024-01-15T00:50:06;94266;;;0.1;60.4
77469;BME280;68840;50.272;12.818;2024-01-15T00:52:05;94265;;;0.1;60.5
77469;BME280;68840;50.272;12.818;2024-01-15T00:54:06;94263;;;0.1;60.5
77469;BME280;68840;50.272;12.818;2024-01-15T00:56:05;94269;;;0.1;60.3
77469;BME280;68840;50.272;12.818;2024-01-15T00:58:05;94278;;;0.0;60.4
77469;BME280;68840;50.272;12.818;2024-01-15T01:00:07;94271;;;0.0;60.4
77469;BME280;68840;50.272;12.818;2024-01-15T01:02:05;94270;;;0.0;60.1
77469;BME280;68840;50.272;12.818;2024-01-15T01:04:05;94270;;;-0.0;60.2
77469;BME280;68840;50.272;12.818;2024-01-15T01:06:05;94270;;;-0.0;60.1
77469;BME280;68840;50.272;12.818;2024-01-15T01:08:05;94272;;;-0.0;60.3
77469;BME280;68840;50.272;12.818;2024-01-15T01:10:06;94278;;;-0.1;60.2
77469;BME280;68840;50.272;12.818;2024-01-15T01:12:06;94279;;;-0.1;60.4
77469;BME280;68840;50.272;12.818;2024-01-15T01:14:05;94278;;;-0.1;60.5
77469;BME280;68840;50.272;12.818;2024-01-15T01:16:05;94275;;;-0.1;60.4
77469;BME280;68840;50.272;12.818;2024-01-15T01:18:06;94276;;;-0.1;60.4
77469;BME280;68840;50.272;12.818;2024-01-15T01:20:08;94275;;;-0.1;60.6
77469;BME280;68840;50.272;12.818;2024-01-15T01:22:05;94273;;;-0.1;60.5
77469;BME280;68840;50.272;12.818;2024-01-15T01:24:05;94262;;;-0.1;60.6
77469;BME280;68840;50.272;12.818;2024-01-15T01:26:05;94259;;;-0.1;60.5
77469;BME280;68840;50.272;12.818;2024-01-15T01:28:05;94262;;;-0.1;60.5
77469;BME280;68840;50.272;12.818;2024-01-15T01:30:06;94262;;;-0.2;60.6
77469;BME280;68840;50.272;12.818;2024-01-15T01:32:05;94262;;;-0.2;60.5
77469;BME280;68840;50.272;12.818;2024-01-15T01:34:05;94257;;;-0.2;60.6
77469;BME280;68840;50.272;12.818;2024-01-15T01:36:08;94253;;;-0.2;60.5
77469;BME280;68840;50.272;12.818;2024-01-15T01:38:05;94252;;;-0.2;60.5
77469;BME280;68840;50.272;12.818;2024-01-15T01:40:06;94252;;;-0.2;60.6
77469;BME280;68840;50.272;12.818;2024-01-15T01:42:05;94250;;;-0.2;60.5
77469;BME280;68840;50.272;12.818;2024-01-15T01:44:05;94247;;;-0.2;60.5
77469;BME280;68840;50.272;12.818;2024-01-15T01:46:05;94245;;;-0.2;60.7
77469;BME280;68840;50.272;12.818;2024-01-15T01:48:05;94247;;;-0.2;60.2
77469;BME280;68840;50.272;12.818;2024-01-15T01:50:06;94243;;;-0.3;60.4
77469;BME280;68840;50.272;12.818;2024-01-15T01:52:06;94240;;;-0.3;60.2
77469;BME280;68840;50.272;12.818;2024-01-15T01:54:06;94240;;;-0.3;60.1
77469;BME280;68840;50.272;12.818;2024-01-15T01:56:06;94237;;;-0.3;60.3
77469;BME280;68840;50.272;12.818;2024-01-15T01:58:06;94233;;;-0.3;60.3
77469;BME280;68840;50.272;12.818;2024-01-15T02:00:07;94230;;;-0.3;60.4
77469;BME280;68840;50.272;12.818;2024-01-15T02:02:06;94231;;;-0.3;60.3
77469;BME280;68840;50.272;12.818;2024-01-15T02:04:06;94226;;;-0.3;60.3
77469;BME280;68840;50.272;12.818;2024-01-15T02:06:05;94228;;;-0.3;60.7
77469;BME280;68840;50.272;12.818;2024-01-15T02:08:05;94230;;;-0.4;61.0
77469;BME280;68840;50.272;12.818;2024-01-15T02:10:06;94230;;;-0.4;61.0
77469;BME280;68840;50.272;12.818;2024-01-15T02:12:06;94226;;;-0.4;61.1
77469;BME280;68840;50.272;12.818;2024-01-15T02:14:05;94227;;;-0.4;61.0
77469;BME280;68840;50.272;12.818;2024-01-15T02:16:05;94234;;;-0.4;60.7
77469;BME280;68840;50.272;12.818;2024-01-15T02:18:07;94239;;;-0.4;60.6
77469;BME280;68840;50.272;12.818;2024-01-15T02:20:06;94241;;;-0.4;60.5
77469;BME280;68840;50.272;12.818;2024-01-15T02:22:05;94242;;;-0.5;60.4
77469;BME280;68840;50.272;12.818;2024-01-15T02:24:05;94242;;;-0.5;60.6
77469;BME280;68840;50.272;12.818;2024-01-15T02:26:05;94239;;;-0.5;60.8
77469;BME280;68840;50.272;12.818;2024-01-15T02:28:06;94238;;;-0.5;60.8
77469;BME280;68840;50.272;12.818;2024-01-15T02:30:07;94241;;;-0.5;60.8
77469;BME280;68840;50.272;12.818;2024-01-15T02:32:05;94246;;;-0.5;60.8
77469;BME280;68840;50.272;12.818;2024-01-15T02:34:06;94247;;;-0.5;60.8
77469;BME280;68840;50.272;12.818;2024-01-15T02:36:06;94245;;;-0.5;60.8
77469;BME280;68840;50.272;12.818;2024-01-15T02:38:06;94248;;;-0.6;60.5
77469;BME280;68840;50.272;12.818;2024-01-15T02:40:06;94246;;;-0.6;60.7
77469;BME280;68840;50.272;12.818;2024-01-15T02:42:05;94245;;;-0.6;60.7
77469;BME280;68840;50.272;12.818;2024-01-15T02:44:05;94245;;;-0.6;60.6
77469;BME280;68840;50.272;12.818;2024-01-15T02:46:05;94242;;;-0.6;60.7
77469;BME280;68840;50.272;12.818;2024-01-15T02:48:06;94242;;;-0.7;60.8
77469;BME280;68840;50.272;12.818;2024-01-15T02:50:07;94245;;;-0.7;60.5
77469;BME280;68840;50.272;12.818;2024-01-15T02:52:05;94247;;;-0.7;60.5
77469;BME280;68840;50.272;12.818;2024-01-15T02:54:05;94250;;;-0.7;60.3
77469;BME280;68840;50.272;12.818;2024-01-15T02:56:07;94252;;;-0.7;60.5
77469;BME280;68840;50.272;12.818;2024-01-15T02:58:05;94254;;;-0.8;60.4
77469;BME280;68840;50.272;12.818;2024-01-15T03:00:07;94262;;;-0.8;60.6
77469;BME280;68840;50.272;12.818;2024-01-15T03:02:05;94264;;;-0.8;60.6
77469;BME280;68840;50.272;12.818;2024-01-15T03:04:05;94268;;;-0.8;60.7
77469;BME280;68840;50.272;12.818;2024-01-15T03:06:05;94274;;;-0.8;60.5
77469;BME280;68840;50.272;12.818;2024-01-15T03:08:05;94285;;;-0.9;60.8
77469;BME280;68840;50.272;12.818;2024-01-15T03:10:06;94289;;;-0.9;60.7
77469;BME280;68840;50.272;12.818;2024-01-15T03:12:06;94286;;;-0.9;60.5
77469;BME280;68840;50.272;12.818;2024-01-15T03:14:06;94284;;;-0.9;60.5
77469;BME280;68840;50.272;12.818;2024-01-15T03:16:05;94288;;;-1.0;60.3
77469;BME280;68840;50.272;12.818;2024-01-15T03:18:06;94294;;;-1.0;60.5
77469;BME280;68840;50.272;12.818;2024-01-15T03:20:06;94292;;;-1.0;60.5
77469;BME280;68840;50.272;12.818;2024-01-15T03:22:08;94291;;;-1.0;60.6
77469;BME280;68840;50.272;12.818;2024-01-15T03:24:05;94290;;;-1.0;60.3
77469;BME280;68840;50.272;12.818;2024-01-15T03:26:05;94295;;;-1.0;60.5
77469;BME280;68840;50.272;12.818;2024-01-15T03:28:05;94299;;;-1.0;60.7
77469;BME280;68840;50.272;12.818;2024-01-15T03:30:06;94298;;;-1.0;60.9
77469;BME280;68840;50.272;12.818;2024-01-15T03:32:05;94296;;;-1.0;60.6
77469;BME280;68840;50.272;12.818;2024-01-15T03:34:05;94293;;;-1.0;60.5
77469;BME280;68840;50.272;12.818;2024-01-15T03:36:06;94295;;;-1.0;60.6
77469;BME280;68840;50.272;12.818;2024-01-15T03:38:06;94296;;;-1.0;60.4
77469;BME280;68840;50.272;12.818;2024-01-15T03:40:07;94293;;;-1.1;60.4
77469;BME280;68840;50.272;12.818;2024-01-15T03:42:06;94293;;;-1.1;60.2
77469;BME280;68840;50.272;12.818;2024-01-15T03:44:05;94293;;;-1.1;60.4
77469;BME280;68840;50.272;12.818;2024-01-15T03:46:05;94292;;;-1.1;60.6
77469;BME280;68840;50.272;12.818;2024-01-15T03:48:06;94286;;;-1.1;60.2
77469;BME280;68840;50.272;12.818;2024-01-15T03:50:06;94292;;;-1.1;60.1
77469;BME280;68840;50.272;12.818;2024-01-15T03:52:05;94288;;;-1.1;60.1
77469;BME280;68840;50.272;12.818;2024-01-15T03:54:05;94283;;;-1.1;59.7
77469;BME280;68840;50.272;12.818;2024-01-15T03:56:05;94280;;;-1.1;59.8
77469;BME280;68840;50.272;12.818;2024-01-15T03:58:05;94278;;;-1.1;60.0
77469;BME280;68840;50.272;12.818;2024-01-15T04:00:07;94272;;;-1.1;60.2
77469;BME280;68840;50.272;12.818;2024-01-15T04:02:05;94265;;;-1.1;60.2
77469;BME280;68840;50.272;12.818;2024-01-15T04:04:05;94269;;;-1.1;60.0
77469;BME280;68840;50.272;12.818;2024-01-15T04:06:05;94270;;;-1.2;59.8
77469;BME280;68840;50.272;12.818;2024-01-15T04:08:06;94272;;;-1.2;60.1
77469;BME280;68840;50.272;12.818;2024-01-15T04:10:05;94273;;;-1.2;59.9
77469;BME280;68840;50.272;12.818;2024-01-15T04:12:05;94272;;;-1.2;60.0
77469;BME280;68840;50.272;12.818;2024-01-15T04:14:05;94270;;;-1.2;60.1
77469;BME280;68840;50.272;12.818;2024-01-15T04:16:05;94257;;;-1.2;60.0
77469;BME280;68840;50.272;12.818;2024-01-15T04:18:05;94253;;;-1.2;60.3
77469;BME280;68840;50.272;12.818;2024-01-15T04:20:07;94256;;;-1.2;60.3
77469;BME280;68840;50.272;12.818;2024-01-15T04:22:05;94255;;;-1.3;60.3
77469;BME280;68840;50.272;12.818;2024-01-15T04:24:06;94257;;;-1.3;60.4
77469;BME280;68840;50.272;12.818;2024-01-15T04:26:05;94249;;;-1.3;60.4
77469;BME280;68840;50.272;12.818;2024-01-15T04:28:05;94245;;;-1.3;60.7
77469;BME280;68840;50.272;12.818;2024-01-15T04:30:06;94243;;;-1.3;60.8
77469;BME280;68840;50.272;12.818;2024-01-15T04:32:05;94255;;;-1.3;60.8
77469;BME280;68840;50.272;12.818;2024-01-15T04:34:07;94265;;;-1.3;60.8
77469;BME280;68840;50.272;12.818;2024-01-15T04:36:05;94268;;;-1.3;60.8
77469;BME280;68840;50.272;12.818;2024-01-15T04:38:05;94270;;;-1.3;61.1
77469;BME280;68840;50.272;12.818;2024-01-15T04:40:06;94266;;;-1.3;60.9
77469;BME280;68840;50.272;12.818;2024-01-15T04:42:05;94261;;;-1.3;60.9
77469;BME280;68840;50.272;12.818;2024-01-15T04:44:05;94257;;;-1.3;60.8
77469;BME280;68840;50.272;12.818;2024-01-15T04:46:06;94257;;;-1.3;60.9
77469;BME280;68840;50.272;12.818;2024-01-15T04:48:05;94259;;;-1.3;60.7
77469;BME280;68840;50.272;12.818;2024-01-15T04:50:06;94263;;;-1.2;60.7
77469;BME280;68840;50.272;12.818;2024-01-15T04:52:05;94266;;;-1.2;60.6
77469;BME280;68840;50.272;12.818;2024-01-15T04:54:05;94269;;;-1.2;60.6
77469;BME280;68840;50.272;12.818;2024-01-15T04:56:06;94272;;;-1.2;60.6
77469;BME280;68840;50.272;12.818;2024-01-15T04:58:05;94268;;;-1.2;60.5
77469;BME280;68840;50.272;12.818;2024-01-15T05:00:06;94263;;;-1.2;60.5
77469;BME280;68840;50.272;12.818;2024-01-15T05:02:05;94256;;;-1.2;60.5
77469;BME280;68840;50.272;12.818;2024-01-15T05:04:05;94256;;;-1.2;60.3
77469;BME280;68840;50.272;12.818;2024-01-15T05:06:06;94257;;;-1.2;60.5
77469;BME280;68840;50.272;12.818;2024-01-15T05:08:05;94261;;;-1.2;60.5
77469;BME280;68840;50.272;12.818;2024-01-15T05:10:07;94267;;;-1.2;60.7
77469;BME280;68840;50.272;12.818;2024-01-15T05:12:05;94270;;;-1.2;60.6
77469;BME280;68840;50.272;12.818;2024-01-15T05:14:05;94278;;;-1.2;61.0
77469;BME280;68840;50.272;12.818;2024-01-15T05:16:05;94276;;;-1.2;60.9
77469;BME280;68840;50.272;12.818;2024-01-15T05:18:06;94270;;;-1.2;60.9
77469;BME280;68840;50.272;12.818;2024-01-15T05:20:07;94264;;;-1.1;60.6
77469;BME280;68840;50.272;12.818;2024-01-15T05:22:05;94259;;;-1.1;60.8
77469;BME280;68840;50.272;12.818;2024-01-15T05:24:05;94255;;;-1.1;60.7
77469;BME280;68840;50.272;12.818;2024-01-15T05:26:05;94259;;;-1.2;60.8
77469;BME280;68840;50.272;12.818;2024-01-15T05:28:06;94262;;;-1.2;60.8
77469;BME280;68840;50.272;12.818;2024-01-15T05:30:06;94258;;;-1.2;60.8
77469;BME280;68840;50.272;12.818;2024-01-15T05:32:05;94262;;;-1.2;60.8
77469;BME280;68840;50.272;12.818;2024-01-15T05:34:05;94259;;;-1.2;60.8
77469;BME280;68840;50.272;12.818;2024-01-15T05:36:06;94258;;;-1.2;60.8
77469;BME280;68840;50.272;12.818;2024-01-15T05:38:05;94262;;;-1.2;61.0
77469;BME280;68840;50.272;12.818;2024-01-15T05:40:06;94266;;;-1.2;61.0
77469;BME280;68840;50.272;12.818;2024-01-15T05:42:05;94266;;;-1.2;60.9
77469;BME280;68840;50.272;12.818;2024-01-15T05:44:07;94262;;;-1.2;60.8
77469;BME280;68840;50.272;12.818;2024-01-15T05:46:05;94260;;;-1.2;60.8
77469;BME280;68840;50.272;12.818;2024-01-15T05:48:05;94261;;;-1.2;60.7
77469;BME280;68840;50.272;12.818;2024-01-15T05:50:07;94264;;;-1.3;60.9
77469;BME280;68840;50.272;12.818;2024-01-15T05:52:05;94259;;;-1.3;60.8
77469;BME280;68840;50.272;12.818;2024-01-15T05:54:06;94255;;;-1.3;61.0
77469;BME280;68840;50.272;12.818;2024-01-15T05:56:06;94258;;;-1.3;60.9
77469;BME280;68840;50.272;12.818;2024-01-15T05:58:05;94264;;;-1.3;60.9
77469;BME280;68840;50.272;12.818;2024-01-15T06:00:06;94266;;;-1.3;61.0
77469;BME280;68840;50.272;12.818;2024-01-15T06:02:05;94270;;;-1.3;61.1
77469;BME280;68840;50.272;12.818;2024-01-15T06:04:06;94272;;;-1.2;61.2
77469;BME280;68840;50.272;12.818;2024-01-15T06:06:05;94273;;;-1.2;61.2
77469;BME280;68840;50.272;12.818;2024-01-15T06:08:05;94274;;;-1.2;61.3
77469;BME280;68840;50.272;12.818;2024-01-15T06:10:06;94273;;;-1.2;61.1
77469;BME280;68840;50.272;12.818;2024-01-15T06:12:07;94275;;;-1.2;61.0
77469;BME280;68840;50.272;12.818;2024-01-15T06:14:05;94271;;;-1.2;61.2
77469;BME280;68840;50.272;12.818;2024-01-15T06:16:13;94267;;;-1.1;61.1
77469;BME280;68840;50.272;12.818;2024-01-15T06:18:05;94270;;;-1.1;61.4
77469;BME280;68840;50.272;12.818;2024-01-15T06:20:07;94269;;;-1.1;61.0
77469;BME280;68840;50.272;12.818;2024-01-15T06:22:05;94273;;;-1.1;60.9
77469;BME280;68840;50.272;12.818;2024-01-15T06:24:05;94272;;;-1.1;60.8
77469;BME280;68840;50.272;12.818;2024-01-15T06:26:05;94272;;;-1.1;60.8
77469;BME280;68840;50.272;12.818;2024-01-15T06:28:05;94271;;;-1.1;61.0
77469;BME280;68840;50.272;12.818;2024-01-15T06:30:06;94274;;;-1.1;61.0
77469;BME280;68840;50.272;12.818;2024-01-15T06:32:05;94277;;;-1.1;61.0
77469;BME280;68840;50.272;12.818;2024-01-15T06:34:05;94277;;;-1.1;60.9
77469;BME280;68840;50.272;12.818;2024-01-15T06:36:06;94278;;;-1.0;61.1
77469;BME280;68840;50.272;12.818;2024-01-15T06:38:05;94280;;;-1.0;61.0
77469;BME280;68840;50.272;12.818;2024-01-15T06:40:06;94279;;;-1.0;60.8
77469;BME280;68840;50.272;12.818;2024-01-15T06:42:06;94279;;;-1.0;60.8
77469;BME280;68840;50.272;12.818;2024-01-15T06:44:05;94279;;;-1.0;60.9
77469;BME280;68840;50.272;12.818;2024-01-15T06:46:05;94282;;;-1.0;60.8
77469;BME280;68840;50.272;12.818;2024-01-15T06:48:07;94282;;;-1.0;60.8
77469;BME280;68840;50.272;12.818;2024-01-15T06:50:07;94288;;;-1.0;60.9
77469;BME280;68840;50.272;12.818;2024-01-15T06:52:06;94287;;;-1.0;60.9
77469;BME280;68840;50.272;12.818;2024-01-15T06:54:05;94289;;;-1.0;60.8
77469;BME280;68840;50.272;12.818;2024-01-15T06:56:05;94295;;;-1.0;60.8
77469;BME280;68840;50.272;12.818;2024-01-15T06:58:05;94298;;;-1.0;60.8
77469;BME280;68840;50.272;12.818;2024-01-15T07:00:08;94299;;;-0.9;60.8
77469;BME280;68840;50.272;12.818;2024-01-15T07:02:05;94300;;;-0.9;60.8
77469;BME280;68840;50.272;12.818;2024-01-15T07:04:05;94304;;;-0.9;60.7
77469;BME280;68840;50.272;12.818;2024-01-15T07:06:05;94300;;;-0.9;60.6
77469;BME280;68840;50.272;12.818;2024-01-15T07:08:05;94301;;;-0.9;60.7
77469;BME280;68840;50.272;12.818;2024-01-15T07:10:06;94300;;;-0.9;60.3
77469;BME280;68840;50.272;12.818;2024-01-15T07:12:05;94306;;;-0.9;60.3
77469;BME280;68840;50.272;12.818;2024-01-15T07:14:05;94304;;;-0.8;59.8
77469;BME280;68840;50.272;12.818;2024-01-15T07:16:05;94302;;;-0.8;59.8
77469;BME280;68840;50.272;12.818;2024-01-15T07:18:05;94301;;;-0.8;59.5
77469;BME280;68840;50.272;12.818;2024-01-15T07:20:08;94306;;;-0.8;59.4
77469;BME280;68840;50.272;12.818;2024-01-15T07:22:06;94308;;;-0.8;59.4
77469;BME280;68840;50.272;12.818;2024-01-15T07:24:05;94307;;;-0.8;59.2
77469;BME280;68840;50.272;12.818;2024-01-15T07:26:05;94311;;;-0.8;58.9
77469;BME280;68840;50.272;12.818;2024-01-15T07:28:06;94312;;;-0.8;58.8
77469;BME280;68840;50.272;12.818;2024-01-15T07:30:06;94313;;;-0.8;58.7
77469;BME280;68840;50.272;12.818;2024-01-15T07:32:07;94312;;;-0.8;58.9
77469;BME280;68840;50.272;12.818;2024-01-15T07:34:05;94315;;;-0.8;58.9
77469;BME280;68840;50.272;12.818;2024-01-15T07:36:06;94318;;;-0.8;58.6
77469;BME280;68840;50.272;12.818;2024-01-15T07:38:05;94320;;;-0.8;58.7
77469;BME280;68840;50.272;12.818;2024-01-15T07:40:08;94318;;;-0.8;59.0
77469;BME280;68840;50.272;12.818;2024-01-15T07:42:06;94316;;;-0.8;58.8
77469;BME280;68840;50.272;12.818;2024-01-15T07:44:05;94311;;;-0.8;58.9
77469;BME280;68840;50.272;12.818;2024-01-15T07:46:07;94313;;;-0.8;58.8
77469;BME280;68840;50.272;12.818;2024-01-15T07:48:06;94310;;;-0.8;58.9
77469;BME280;68840;50.272;12.818;2024-01-15T07:50:06;94312;;;-0.7;58.9
77469;BME280;68840;50.272;12.818;2024-01-15T07:52:05;94313;;;-0.7;59.3
77469;BME280;68840;50.272;12.818;2024-01-15T07:54:06;94313;;;-0.7;58.9
77469;BME280;68840;50.272;12.818;2024-01-15T07:56:05;94314;;;-0.6;58.5
77469;BME280;68840;50.272;12.818;2024-01-15T07:58:05;94314;;;-0.6;58.6
77469;BME280;68840;50.272;12.818;2024-01-15T08:00:06;94315;;;-0.6;58.5
77469;BME280;68840;50.272;12.818;2024-01-15T08:02:05;94314;;;-0.6;58.4
77469;BME280;68840;50.272;12.818;2024-01-15T08:04:05;94316;;;-0.6;58.6
77469;BME280;68840;50.272;12.818;2024-01-15T08:06:05;94315;;;-0.5;58.2
77469;BME280;68840;50.272;12.818;2024-01-15T08:08:05;94315;;;-0.5;58.1
77469;BME280;68840;50.272;12.818;2024-01-15T08:10:05;94318;;;-0.5;57.9
77469;BME280;68840;50.272;12.818;2024-01-15T08:12:06;94319;;;-0.5;58.1
77469;BME280;68840;50.272;12.818;2024-01-15T08:14:05;94318;;;-0.5;58.3
77469;BME280;68840;50.272;12.818;2024-01-15T08:16:05;94319;;;-0.5;58.3
77469;BME280;68840;50.272;12.818;2024-01-15T08:18:05;94319;;;-0.5;58.0
77469;BME280;68840;50.272;12.818;2024-01-15T08:20:06;94315;;;-0.5;58.1
77469;BME280;68840;50.272;12.818;2024-01-15T08:22:05;94314;;;-0.5;58.1
77469;BME280;68840;50.272;12.818;2024-01-15T08:24:06;94313;;;-0.5;58.0
77469;BME280;68840;50.272;12.818;2024-01-15T08:26:05;94315;;;-0.5;58.1
77469;BME280;68840;50.272;12.818;2024-01-15T08:28:05;94318;;;-0.5;58.0
77469;BME280;68840;50.272;12.818;2024-01-15T08:30:07;94319;;;-0.5;58.1
77469;BME280;68840;50.272;12.818;2024-01-15T08:32:05;94323;;;-0.5;58.0
77469;BME280;68840;50.272;12.818;2024-01-15T08:34:05;94321;;;-0.5;58.2
77469;BME280;68840;50.272;12.818;2024-01-15T08:36:06;94325;;;-0.5;58.1
77469;BME280;68840;50.272;12.818;2024-01-15T08:38:05;94326;;;-0.5;57.9
77469;BME280;68840;50.272;12.818;2024-01-15T08:40:06;94328;;;-0.5;58.1
77469;BME280;68840;50.272;12.818;2024-01-15T08:42:05;94328;;;-0.4;58.1
77469;BME280;68840;50.272;12.818;2024-01-15T08:44:05;94331;;;-0.4;57.8
77469;BME280;68840;50.272;12.818;2024-01-15T08:46:06;94334;;;-0.4;58.0
77469;BME280;68840;50.272;12.818;2024-01-15T08:48:05;94336;;;-0.4;57.9
77469;BME280;68840;50.272;12.818;2024-01-15T08:50:06;94332;;;-0.4;58.1
77469;BME280;68840;50.272;12.818;2024-01-15T08:52:05;94331;;;-0.4;58.2
77469;BME280;68840;50.272;12.818;2024-01-15T08:54:05;94328;;;-0.4;58.2
77469;BME280;68840;50.272;12.818;2024-01-15T08:56:06;94324;;;-0.3;58.6
77469;BME280;68840;50.272;12.818;2024-01-15T08:58:06;94324;;;-0.3;58.6
77469;BME280;68840;50.272;12.818;2024-01-15T09:00:08;94325;;;-0.3;58.4
77469;BME280;68840;50.272;12.818;2024-01-15T09:02:05;94320;;;-0.2;58.2
77469;BME280;68840;50.272;12.818;2024-01-15T09:04:05;94317;;;-0.2;58.3
77469;BME280;68840;50.272;12.818;2024-01-15T09:06:05;94317;;;-0.2;58.3
77469;BME280;68840;50.272;12.818;2024-01-15T09:08:05;94315;;;-0.2;58.5
77469;BME280;68840;50.272;12.818;2024-01-15T09:10:06;94315;;;-0.1;58.3
77469;BME280;68840;50.272;12.818;2024-01-15T09:12:06;94314;;;-0.1;58.0
77469;BME280;68840;50.272;12.818;2024-01-15T09:14:05;94314;;;-0.1;58.5
77469;BME280;68840;50.272;12.818;2024-01-15T09:16:05;94313;;;-0.0;58.5
77469;BME280;68840;50.272;12.818;2024-01-15T09:18:06;94310;;;0.0;58.2
77469;BME280;68840;50.272;12.818;2024-01-15T09:20:06;94308;;;0.1;57.9
77469;BME280;68840;50.272;12.818;2024-01-15T09:22:05;94306;;;0.1;58.2
77469;BME280;68840;50.272;12.818;2024-01-15T09:24:05;94304;;;0.1;58.0
77469;BME280;68840;50.272;12.818;2024-01-15T09:26:07;94302;;;0.2;57.8
77469;BME280;68840;50.272;12.818;2024-01-15T09:28:05;94300;;;0.2;57.5
77469;BME280;68840;50.272;12.818;2024-01-15T09:30:06;94302;;;0.2;57.3
77469;BME280;68840;50.272;12.818;2024-01-15T09:32:05;94305;;;0.2;57.8
77469;BME280;68840;50.272;12.818;2024-01-15T09:34:06;94308;;;0.2;57.7
77469;BME280;68840;50.272;12.818;2024-01-15T09:36:05;94312;;;0.2;57.7
77469;BME280;68840;50.272;12.818;2024-01-15T09:38:05;94310;;;0.2;57.9
77469;BME280;68840;50.272;12.818;2024-01-15T09:40:07;94309;;;0.2;57.2
77469;BME280;68840;50.272;12.818;2024-01-15T09:42:05;94307;;;0.2;57.7
77469;BME280;68840;50.272;12.818;2024-01-15T09:44:08;94305;;;0.3;57.9
77469;BME280;68840;50.272;12.818;2024-01-15T09:46:06;94303;;;0.3;57.6
77469;BME280;68840;50.272;12.818;2024-01-15T09:48:06;94303;;;0.3;57.4
77469;BME280;68840;50.272;12.818;2024-01-15T09:50:06;94301;;;0.3;57.6
77469;BME280;68840;50.272;12.818;2024-01-15T09:52:07;94302;;;0.3;57.0
77469;BME280;68840;50.272;12.818;2024-01-15T09:54:06;94303;;;0.2;56.8
77469;BME280;68840;50.272;12.818;2024-01-15T09:56:05;94305;;;0.2;57.0
77469;BME280;68840;50.272;12.818;2024-01-15T09:58:05;94302;;;0.2;57.5
77469;BME280;68840;50.272;12.818;2024-01-15T10:00:07;94296;;;0.2;57.5
77469;BME280;68840;50.272;12.818;2024-01-15T10:02:07;94296;;;0.2;57.5
77469;BME280;68840;50.272;12.818;2024-01-15T10:04:05;94294;;;0.2;57.2
77469;BME280;68840;50.272;12.818;2024-01-15T10:06:07;94295;;;0.2;57.4
77469;BME280;68840;50.272;12.818;2024-01-15T10:08:06;94292;;;0.2;57.2
77469;BME280;68840;50.272;12.818;2024-01-15T10:10:07;94289;;;0.3;57.5
77469;BME280;68840;50.272;12.818;2024-01-15T10:12:06;94291;;;0.3;57.3
77469;BME280;68840;50.272;12.818;2024-01-15T10:14:06;94283;;;0.3;57.1
77469;BME280;68840;50.272;12.818;2024-01-15T10:16:06;94281;;;0.3;57.2
77469;BME280;68840;50.272;12.818;2024-01-15T10:18:05;94277;;;0.3;57.2
77469;BME280;68840;50.272;12.818;2024-01-15T10:20:08;94278;;;0.3;57.3
77469;BME280;68840;50.272;12.818;2024-01-15T10:22:06;94280;;;0.3;57.3
77469;BME280;68840;50.272;12.818;2024-01-15T10:24:05;94282;;;0.3;57.4
77469;BME280;68840;50.272;12.818;2024-01-15T10:26:05;94277;;;0.3;57.0
77469;BME280;68840;50.272;12.818;2024-01-15T10:28:05;94275;;;0.3;57.4
77469;BME280;68840;50.272;12.818;2024-01-15T10:30:06;94274;;;0.4;56.9
77469;BME280;68840;50.272;12.818;2024-01-15T10:32:07;94274;;;0.4;57.3
77469;BME280;68840;50.272;12.818;2024-01-15T10:34:15;94272;;;0.4;57.3
77469;BME280;68840;50.272;12.818;2024-01-15T10:36:09;94269;;;0.4;57.3
77469;BME280;68840;50.272;12.818;2024-01-15T10:38:05;94265;;;0.5;57.3
77469;BME280;68840;50.272;12.818;2024-01-15T10:40:06;94266;;;0.5;57.2
77469;BME280;68840;50.272;12.818;2024-01-15T10:42:06;94263;;;0.5;56.7
77469;BME280;68840;50.272;12.818;2024-01-15T10:44:05;94262;;;0.5;56.8
77469;BME280;68840;50.272;12.818;2024-01-15T10:46:06;94262;;;0.5;56.8
77469;BME280;68840;50.272;12.818;2024-01-15T10:48:06;94265;;;0.5;56.9
77469;BME280;68840;50.272;12.818;2024-01-15T10:50:07;94265;;;0.5;56.6
77469;BME280;68840;50.272;12.818;2024-01-15T10:52:05;94264;;;0.4;56.9
77469;BME280;68840;50.272;12.818;2024-01-15T10:54:07;94258;;;0.4;56.7
77469;BME280;68840;50.272;12.818;2024-01-15T10:56:07;94256;;;0.4;56.6
77469;BME280;68840;50.272;12.818;2024-01-15T10:58:09;94253;;;0.4;56.6
77469;BME280;68840;50.272;12.818;2024-01-15T11:00:07;94250;;;0.4;57.0
77469;BME280;68840;50.272;12.818;2024-01-15T11:02:06;94247;;;0.4;57.0
77469;BME280;68840;50.272;12.818;2024-01-15T11:04:06;94242;;;0.4;56.7
77469;BME280;68840;50.272;12.818;2024-01-15T11:06:16;94242;;;0.4;57.1
77469;BME280;68840;50.272;12.818;2024-01-15T11:08:07;94240;;;0.4;56.9
77469;BME280;68840;50.272;12.818;2024-01-15T11:10:11;94236;;;0.4;57.2
77469;BME280;68840;50.272;12.818;2024-01-15T11:12:09;94239;;;0.5;56.8